# Tabular Observed and Forecast Hydrograph Information
#
# Location: Pit River - Montgomery Creek (PITC1)
#
# File Generation Time: 09/06/2026 at 06:50 AM PDT
# Data Interval: 1 Hour
#
# Most Recent Date & Time of Maximum Observed: 09/02/2026 at 01:00 AM PDT
# Maximum Observed Stage: 59.99 Feet
# Maximum Observed Flow: 3672 cfs
#
# Earliest Date & Time of Maximum Forecast: 09/06/2026 at 02:00 PM PDT
# Maximum Forecast Stage: 58.45 Feet
# Maximum Forecast Flow: 2197 cfs
#
# OBSERVED
#
# Date & Time (Local) Stage (Feet) Flow (cfs) Trend Observed Status
# ---------------------------------------------------------------------------------
09/01/2026 06 AM PDT 57.28 1380 Not Applicable
09/01/2026 07 AM PDT 58.24 2034 + Not Applicable
09/01/2026 08 AM PDT 56.96 1196 - Not Applicable
09/01/2026 09 AM PDT 56.59 1004 - Not Applicable
09/01/2026 10 AM PDT 56.55 983 - Not Applicable
09/01/2026 11 AM PDT 56.56 988 + Not Applicable
09/01/2026 12 PM PDT 56.89 1159 + Not Applicable
09/01/2026 01 PM PDT 56.90 1165 + Not Applicable
09/01/2026 02 PM PDT 56.92 1175 + Not Applicable
09/01/2026 03 PM PDT 56.93 1180 + Not Applicable
09/01/2026 04 PM PDT 56.94 1186 + Not Applicable
09/01/2026 05 PM PDT 56.56 988 - Not Applicable
09/01/2026 06 PM PDT 57.31 1399 + Not Applicable
09/01/2026 07 PM PDT 58.83 2518 + Not Applicable
09/01/2026 08 PM PDT 59.04 2706 + Not Applicable
09/01/2026 09 PM PDT 59.08 2745 + Not Applicable
09/01/2026 10 PM PDT 59.50 3150 + Not Applicable
09/01/2026 11 PM PDT 59.88 3547 + Not Applicable
09/02/2026 12 AM PDT 59.84 3506 - Not Applicable
09/02/2026 01 AM PDT 59.99 3672 + Not Applicable
09/02/2026 02 AM PDT 57.17 1314 - Not Applicable
09/02/2026 03 AM PDT 58.87 2555 + Not Applicable
09/02/2026 04 AM PDT 57.51 1522 - Not Applicable
09/02/2026 05 AM PDT 58.35 2118 + Not Applicable
09/02/2026 06 AM PDT 56.83 1126 - Not Applicable
09/02/2026 07 AM PDT 58.62 2339 + Not Applicable
09/02/2026 08 AM PDT 57.94 1812 - Not Applicable
09/02/2026 09 AM PDT 56.66 1040 - Not Applicable
09/02/2026 10 AM PDT 56.55 983 - Not Applicable
09/02/2026 11 AM PDT 56.57 993 + Not Applicable
09/02/2026 12 PM PDT 56.58 999 + Not Applicable
09/02/2026 01 PM PDT 56.59 1004 + Not Applicable
09/02/2026 02 PM PDT 56.57 993 - Not Applicable
09/02/2026 03 PM PDT 56.90 1165 + Not Applicable
09/02/2026 04 PM PDT 56.90 1165 0 Not Applicable
09/02/2026 05 PM PDT 56.89 1159 - Not Applicable
09/02/2026 06 PM PDT 57.21 1336 + Not Applicable
09/02/2026 07 PM PDT 58.73 2434 + Not Applicable
09/02/2026 08 PM PDT 59.12 2782 + Not Applicable
09/02/2026 09 PM PDT 59.35 2999 + Not Applicable
09/02/2026 10 PM PDT 59.56 3214 + Not Applicable
09/02/2026 11 PM PDT 57.64 1604 - Not Applicable
09/03/2026 12 AM PDT 56.60 1009 - Not Applicable
09/03/2026 01 AM PDT 58.60 2321 + Not Applicable
09/03/2026 02 AM PDT 58.39 2151 - Not Applicable
09/03/2026 03 AM PDT 57.32 1404 - Not Applicable
09/03/2026 04 AM PDT 56.57 993 - Not Applicable
09/03/2026 05 AM PDT 56.95 1191 + Not Applicable
09/03/2026 06 AM PDT 58.04 1884 + Not Applicable
09/03/2026 07 AM PDT 58.73 2434 + Not Applicable
09/03/2026 08 AM PDT 58.10 1926 - Not Applicable
09/03/2026 09 AM PDT 56.72 1071 - Not Applicable
09/03/2026 10 AM PDT 56.96 1196 + Not Applicable
09/03/2026 11 AM PDT 56.58 999 - Not Applicable
09/03/2026 12 PM PDT 56.58 999 0 Not Applicable
09/03/2026 01 PM PDT 56.91 1170 + Not Applicable
09/03/2026 02 PM PDT 56.95 1191 + Not Applicable
09/03/2026 03 PM PDT 56.59 1004 - Not Applicable
09/03/2026 04 PM PDT 56.58 999 - Not Applicable
09/03/2026 05 PM PDT 56.88 1154 + Not Applicable
09/03/2026 06 PM PDT 57.56 1552 + Not Applicable
09/03/2026 07 PM PDT 58.70 2410 + Not Applicable
09/03/2026 08 PM PDT 59.05 2716 + Not Applicable
09/03/2026 09 PM PDT 59.55 3203 + Not Applicable
09/03/2026 10 PM PDT 57.83 1736 - Not Applicable
09/03/2026 11 PM PDT 56.69 1056 - Not Applicable
09/04/2026 12 AM PDT 57.61 1584 + Not Applicable
09/04/2026 01 AM PDT 59.06 2725 + Not Applicable
09/04/2026 02 AM PDT 58.71 2418 - Not Applicable
09/04/2026 03 AM PDT 56.92 1175 - Not Applicable
09/04/2026 04 AM PDT 56.93 1180 + Not Applicable
09/04/2026 05 AM PDT 56.89 1159 - Not Applicable
09/04/2026 06 AM PDT 58.32 2093 + Not Applicable
09/04/2026 07 AM PDT 58.78 2475 + Not Applicable
09/04/2026 08 AM PDT 57.86 1756 - Not Applicable
09/04/2026 09 AM PDT 56.60 1009 - Not Applicable
09/04/2026 10 AM PDT 56.89 1159 + Not Applicable
09/04/2026 11 AM PDT 56.93 1180 + Not Applicable
09/04/2026 12 PM PDT 56.57 993 - Not Applicable
09/04/2026 01 PM PDT 56.93 1180 + Not Applicable
09/04/2026 02 PM PDT 56.56 988 - Not Applicable
09/04/2026 03 PM PDT 56.55 983 - Not Applicable
09/04/2026 04 PM PDT 56.56 988 + Not Applicable
09/04/2026 05 PM PDT 56.95 1191 + Not Applicable
09/04/2026 06 PM PDT 57.55 1546 + Not Applicable
09/04/2026 07 PM PDT 59.01 2677 + Not Applicable
09/04/2026 08 PM PDT 58.66 2374 - Not Applicable
09/04/2026 09 PM PDT 59.33 2980 + Not Applicable
09/04/2026 10 PM PDT 57.32 1404 - Not Applicable
09/04/2026 11 PM PDT 56.92 1175 - Not Applicable
09/05/2026 12 AM PDT 58.31 2085 + Not Applicable
09/05/2026 01 AM PDT 59.04 2706 + Not Applicable
09/05/2026 02 AM PDT 57.35 1421 - Not Applicable
09/05/2026 03 AM PDT 59.38 3026 + Not Applicable
09/05/2026 04 AM PDT 57.43 1470 - Not Applicable
09/05/2026 05 AM PDT 58.78 2475 + Not Applicable
09/05/2026 06 AM PDT 57.65 1611 - Not Applicable
09/05/2026 07 AM PDT 57.90 1782 + Not Applicable
09/05/2026 08 AM PDT 57.49 1509 - Not Applicable
09/05/2026 09 AM PDT 56.59 1004 - Not Applicable
09/05/2026 10 AM PDT 56.55 983 - Not Applicable
09/05/2026 11 AM PDT 56.94 1186 + Not Applicable
09/05/2026 12 PM PDT 56.92 1175 - Not Applicable
09/05/2026 01 PM PDT 56.90 1165 - Not Applicable
09/05/2026 02 PM PDT 56.93 1180 + Not Applicable
09/05/2026 03 PM PDT 56.85 1137 - Not Applicable
09/05/2026 04 PM PDT 56.54 978 - Not Applicable
09/05/2026 05 PM PDT 56.67 1045 + Not Applicable
09/05/2026 06 PM PDT 57.73 1667 + Not Applicable
09/05/2026 07 PM PDT 58.54 2269 + Not Applicable
09/05/2026 08 PM PDT 59.12 2782 + Not Applicable
09/05/2026 09 PM PDT 59.18 2835 + Not Applicable
09/05/2026 10 PM PDT 59.49 3139 + Not Applicable
09/05/2026 11 PM PDT 59.34 2989 - Not Applicable
09/06/2026 12 AM PDT 59.91 3579 + Not Applicable
09/06/2026 01 AM PDT 57.30 1393 - Not Applicable
09/06/2026 02 AM PDT 58.56 2286 + Not Applicable
09/06/2026 03 AM PDT 58.50 2235 - Not Applicable
09/06/2026 04 AM PDT 58.09 1919 - Not Applicable
09/06/2026 05 AM PDT 56.93 1180 - Not Applicable
09/06/2026 06 AM PDT 56.57 993 - Not Applicable
#
# FORECAST
#
# Date & Time (Local) Stage (Feet) Flow (cfs) Trend Forecast Status
# ---------------------------------------------------------------------------------
09/06/2026 07 AM PDT 56.86 1143 Not Applicable
09/06/2026 08 AM PDT 57.13 1292 + Not Applicable
09/06/2026 09 AM PDT 57.38 1438 + Not Applicable
09/06/2026 10 AM PDT 57.62 1591 + Not Applicable
09/06/2026 11 AM PDT 57.84 1743 + Not Applicable
09/06/2026 12 PM PDT 58.05 1891 + Not Applicable
09/06/2026 01 PM PDT 58.25 2041 + Not Applicable
09/06/2026 02 PM PDT 58.45 2197 + Not Applicable
09/06/2026 03 PM PDT 58.45 2197 0 Not Applicable
09/06/2026 04 PM PDT 58.45 2197 0 Not Applicable
09/06/2026 05 PM PDT 58.45 2197 0 Not Applicable
09/06/2026 06 PM PDT 58.45 2197 0 Not Applicable
09/06/2026 07 PM PDT 58.45 2197 0 Not Applicable
09/06/2026 08 PM PDT 58.45 2197 0 Not Applicable
09/06/2026 09 PM PDT 58.45 2197 0 Not Applicable
09/06/2026 10 PM PDT 58.45 2197 0 Not Applicable
09/06/2026 11 PM PDT 58.45 2197 0 Not Applicable
09/07/2026 12 AM PDT 58.45 2197 0 Not Applicable
09/07/2026 01 AM PDT 58.45 2197 0 Not Applicable
09/07/2026 02 AM PDT 58.45 2197 0 Not Applicable
09/07/2026 03 AM PDT 58.45 2197 0 Not Applicable
09/07/2026 04 AM PDT 58.45 2197 0 Not Applicable
09/07/2026 05 AM PDT 58.44 2189 - Not Applicable
09/07/2026 06 AM PDT 58.44 2189 0 Not Applicable
09/07/2026 07 AM PDT 58.44 2189 0 Not Applicable
09/07/2026 08 AM PDT 58.44 2189 0 Not Applicable
09/07/2026 09 AM PDT 58.43 2182 - Not Applicable
09/07/2026 10 AM PDT 58.43 2182 0 Not Applicable
09/07/2026 11 AM PDT 58.43 2182 0 Not Applicable
09/07/2026 12 PM PDT 58.42 2174 - Not Applicable
09/07/2026 01 PM PDT 58.42 2174 0 Not Applicable
09/07/2026 02 PM PDT 58.42 2174 0 Not Applicable
09/07/2026 03 PM PDT 58.42 2174 0 Not Applicable
09/07/2026 04 PM PDT 58.41 2166 - Not Applicable
09/07/2026 05 PM PDT 58.41 2166 0 Not Applicable
09/07/2026 06 PM PDT 58.41 2166 0 Not Applicable
09/07/2026 07 PM PDT 58.41 2166 0 Not Applicable
09/07/2026 08 PM PDT 58.40 2159 - Not Applicable
09/07/2026 09 PM PDT 58.40 2159 0 Not Applicable
09/07/2026 10 PM PDT 58.40 2159 0 Not Applicable
09/07/2026 11 PM PDT 58.40 2159 0 Not Applicable
09/08/2026 12 AM PDT 58.39 2151 - Not Applicable
09/08/2026 01 AM PDT 58.39 2151 0 Not Applicable
09/08/2026 02 AM PDT 58.39 2151 0 Not Applicable
09/08/2026 03 AM PDT 58.39 2151 0 Not Applicable
09/08/2026 04 AM PDT 58.38 2142 - Not Applicable
09/08/2026 05 AM PDT 58.38 2142 0 Not Applicable
09/08/2026 06 AM PDT 58.38 2142 0 Not Applicable
09/08/2026 07 AM PDT 58.38 2142 0 Not Applicable
09/08/2026 08 AM PDT 58.37 2134 - Not Applicable
09/08/2026 09 AM PDT 58.37 2134 0 Not Applicable
09/08/2026 10 AM PDT 58.37 2134 0 Not Applicable
09/08/2026 11 AM PDT 58.37 2134 0 Not Applicable
09/08/2026 12 PM PDT 58.36 2126 - Not Applicable
09/08/2026 01 PM PDT 58.36 2126 0 Not Applicable
09/08/2026 02 PM PDT 58.36 2126 0 Not Applicable
09/08/2026 03 PM PDT 58.35 2118 - Not Applicable
09/08/2026 04 PM PDT 58.35 2118 0 Not Applicable
09/08/2026 05 PM PDT 58.35 2118 0 Not Applicable
09/08/2026 06 PM PDT 58.35 2118 0 Not Applicable
09/08/2026 07 PM PDT 58.35 2118 0 Not Applicable
09/08/2026 08 PM PDT 58.34 2109 - Not Applicable
09/08/2026 09 PM PDT 58.34 2109 0 Not Applicable
09/08/2026 10 PM PDT 58.34 2109 0 Not Applicable
09/08/2026 11 PM PDT 58.34 2109 0 Not Applicable
09/09/2026 12 AM PDT 58.34 2109 0 Not Applicable
09/09/2026 01 AM PDT 58.34 2109 0 Not Applicable
09/09/2026 02 AM PDT 58.34 2109 0 Not Applicable
09/09/2026 03 AM PDT 58.34 2109 0 Not Applicable
09/09/2026 04 AM PDT 58.34 2109 0 Not Applicable
09/09/2026 05 AM PDT 58.34 2109 0 Not Applicable
09/09/2026 06 AM PDT 58.34 2109 0 Not Applicable
09/09/2026 07 AM PDT 58.34 2109 0 Not Applicable
09/09/2026 08 AM PDT 58.34 2109 0 Not Applicable
09/09/2026 09 AM PDT 58.34 2109 0 Not Applicable
09/09/2026 10 AM PDT 58.34 2109 0 Not Applicable
09/09/2026 11 AM PDT 58.34 2109 0 Not Applicable
09/09/2026 12 PM PDT 58.34 2109 0 Not Applicable
09/09/2026 01 PM PDT 58.34 2109 0 Not Applicable
09/09/2026 02 PM PDT 58.34 2109 0 Not Applicable
09/09/2026 03 PM PDT 58.34 2109 0 Not Applicable
09/09/2026 04 PM PDT 58.34 2109 0 Not Applicable
09/09/2026 05 PM PDT 58.34 2109 0 Not Applicable
09/09/2026 06 PM PDT 58.34 2109 0 Not Applicable
09/09/2026 07 PM PDT 58.34 2109 0 Not Applicable
09/09/2026 08 PM PDT 58.34 2109 0 Not Applicable
09/09/2026 09 PM PDT 58.34 2109 0 Not Applicable
09/09/2026 10 PM PDT 58.34 2109 0 Not Applicable
09/09/2026 11 PM PDT 58.34 2109 0 Not Applicable
09/10/2026 12 AM PDT 58.34 2109 0 Not Applicable
09/10/2026 01 AM PDT 58.34 2109 0 Not Applicable
09/10/2026 02 AM PDT 58.34 2109 0 Not Applicable
09/10/2026 03 AM PDT 58.34 2109 0 Not Applicable
09/10/2026 04 AM PDT 58.34 2109 0 Not Applicable
09/10/2026 05 AM PDT 58.34 2109 0 Not Applicable
09/10/2026 06 AM PDT 58.34 2109 0 Not Applicable
09/10/2026 07 AM PDT 58.34 2109 0 Not Applicable
09/10/2026 08 AM PDT 58.34 2109 0 Not Applicable
09/10/2026 09 AM PDT 58.34 2109 0 Not Applicable
09/10/2026 10 AM PDT 58.34 2109 0 Not Applicable
09/10/2026 11 AM PDT 58.34 2109 0 Not Applicable
09/10/2026 12 PM PDT 58.34 2109 0 Not Applicable
09/10/2026 01 PM PDT 58.34 2109 0 Not Applicable
09/10/2026 02 PM PDT 58.34 2109 0 Not Applicable
09/10/2026 03 PM PDT 58.34 2109 0 Not Applicable
09/10/2026 04 PM PDT 58.34 2109 0 Not Applicable
09/10/2026 05 PM PDT 58.34 2109 0 Not Applicable
09/10/2026 06 PM PDT 58.34 2109 0 Not Applicable
09/10/2026 07 PM PDT 58.34 2109 0 Not Applicable
09/10/2026 08 PM PDT 58.34 2109 0 Not Applicable
09/10/2026 09 PM PDT 58.34 2109 0 Not Applicable
09/10/2026 10 PM PDT 58.34 2109 0 Not Applicable
09/10/2026 11 PM PDT 58.34 2109 0 Not Applicable
09/11/2026 12 AM PDT 58.34 2109 0 Not Applicable
09/11/2026 01 AM PDT 58.34 2109 0 Not Applicable
09/11/2026 02 AM PDT 58.34 2109 0 Not Applicable
09/11/2026 03 AM PDT 58.33 2101 - Not Applicable
09/11/2026 04 AM PDT 58.33 2101 0 Not Applicable
09/11/2026 05 AM PDT 58.33 2101 0 Not Applicable
#
# NOTE 1: Stages are rounded to the nearest hundredth (.01) of a foot.
# NOTE 2: Flows are rounded to the nearest (1) cfs.
# NOTE 3: Trends are determined using hourly change in unrounded stage and flow.
# NOTE 4: Maximum Values are determined using unrounded stage and flow.
|